If you wish to contribute or participate in the discussions about articles you are invited to join SKYbrary as a registered user

 Actions

Santa Genoveva Airport

From SKYbrary Wiki

SBGO
Airport
ICAO: SBGO – IATA: GYN
Summary
Name Santa Genoveva Airport
Region South America and Caribbean
Territory Brazil BR.gif
Location Santa Genoveva, Goias
Serving Goiânia
Elevation 746.76 m
2,450 ft746.76 m
Coordinates 16° 37' 46.99" S, 49° 13' 36.01" W
Runways
Designator Length Width Surface ROPS
14/32 2500 m8,202.1 ft
45 m147.638 ft
ASP yes/yes


METAR
Observation SBGO 200400Z 29002KT CAVOK 22/20 Q1016
Station Goiania Aeroporto
Date/Time 20 November 2019 04:00:00
Wind direction 290°
Wind speed 02 kts
Lowest cloud amount clouds and visibility OK
Temperature 22°C
Dew point 20°C
Humidity 88%
QNH 1016 hPa
Weather condition n/a

Santa Genoveva/Goiânia Airport is the airport serving Goiânia, Brazil.

Climatology

Tropical savanna climate (Köppen climate classification Aw)

Maps

Terrain

Loading map...

Airport Layout

Loading map...


Accidents & Serious Incidents at or in vicinity of SBGO

None on SKYbrary